Time;durP1;ratioP1;P1;durP2;ratioP2;P2;SDS_P1;SDS_P2;PMS_P1;PMS_P2;Temp;Humidity;BMP_temperature;BMP_pressure;BME280_temperature;BME280_humidity;BME280_pressure;Samples;Min_cycle;Max_cycle;Signal;HPM_P1;HPM_P2
2021/12/06 00:02:21;;;;;;;39.35;23.40;;;;;;;;;;5098121;27;20412;-77
2021/12/06 00:04:47;;;;;;;30.95;17.27;;;;;;;;;;5116583;27;20027;-77
2021/12/06 00:07:16;;;;;;;31.75;16.58;;;;;;;;;;5116560;27;20419;-77
2021/12/06 00:09:42;;;;;;;29.50;15.75;;;;;;;;;;5097958;27;20027;-77
2021/12/06 00:12:07;;;;;;;32.38;19.33;;;;;;;;;;5098220;27;20038;-77
2021/12/06 00:14:35;;;;;;;26.15;15.55;;;;;;;;;;5098647;27;20031;-77
2021/12/06 00:17:02;;;;;;;27.70;16.25;;;;;;;;;;5116730;27;20015;-77
2021/12/06 00:19:28;;;;;;;26.02;15.35;;;;;;;;;;5116501;27;20027;-77
2021/12/06 00:21:54;;;;;;;23.48;13.50;;;;;;;;;;5098556;27;20023;-77
2021/12/06 00:24:20;;;;;;;24.38;13.68;;;;;;;;;;5097528;27;20113;-76
2021/12/06 00:26:45;;;;;;;29.95;16.80;;;;;;;;;;5116273;27;20059;-76
2021/12/06 00:29:11;;;;;;;26.30;15.30;;;;;;;;;;5097317;27;20019;-77
2021/12/06 00:31:36;;;;;;;24.05;13.70;;;;;;;;;;5097675;27;20024;-77
2021/12/06 00:34:05;;;;;;;24.65;15.45;;;;;;;;;;5097684;27;20484;-77
2021/12/06 00:36:32;;;;;;;23.30;14.50;;;;;;;;;;5098303;27;20024;-76
2021/12/06 00:38:58;;;;;;;23.20;14.23;;;;;;;;;;5097510;27;20021;-77
2021/12/06 00:41:24;;;;;;;30.38;16.52;;;;;;;;;;5115888;27;20019;-77
2021/12/06 00:43:49;;;;;;;26.67;15.75;;;;;;;;;;5115417;27;20023;-77
2021/12/06 00:46:15;;;;;;;27.48;16.30;;;;;;;;;;5116672;27;20526;-77
2021/12/06 00:48:40;;;;;;;29.90;17.55;;;;;;;;;;5115461;28;20023;-77
2021/12/06 00:51:05;;;;;;;21.73;13.15;;;;;;;;;;5095831;28;20696;-77
2021/12/06 00:53:31;;;;;;;22.90;12.95;;;;;;;;;;5097333;28;20023;-79
2021/12/06 00:55:57;;;;;;;25.50;14.85;;;;;;;;;;5115325;28;20035;-76
2021/12/06 00:58:22;;;;;;;22.33;13.30;;;;;;;;;;5076829;28;20083;-79
2021/12/06 01:00:51;;;;;;;21.40;13.15;;;;;;;;;;5077050;28;20059;-76
2021/12/06 01:03:18;;;;;;;25.20;14.48;;;;;;;;;;5076592;28;20027;-79
2021/12/06 01:05:43;;;;;;;30.05;18.55;;;;;;;;;;5077262;28;20063;-79
2021/12/06 01:08:09;;;;;;;28.23;15.10;;;;;;;;;;5076876;28;20047;-78
2021/12/06 01:10:34;;;;;;;22.67;14.13;;;;;;;;;;5076383;28;20023;-76
2021/12/06 01:13:00;;;;;;;25.58;15.00;;;;;;;;;;5095471;28;20400;-79
2021/12/06 01:15:26;;;;;;;28.38;15.05;;;;;;;;;;5099057;28;20277;-78
2021/12/06 01:17:51;;;;;;;26.35;16.30;;;;;;;;;;5098595;28;20012;-78
2021/12/06 01:20:21;;;;;;;24.92;14.77;;;;;;;;;;5099398;28;20417;-78
2021/12/06 01:23:01;;;;;;;30.77;15.68;;;;;;;;;;5099119;28;20023;-78
2021/12/06 01:25:56;;;;;;;33.50;18.92;;;;;;;;;;5098691;28;20023;-78
2021/12/06 01:28:58;;;;;;;27.20;15.20;;;;;;;;;;5099770;28;20027;-78
2021/12/06 01:31:37;;;;;;;25.67;15.20;;;;;;;;;;5098347;28;20118;-79
2021/12/06 01:39:07;;;;;;;27.85;17.33;;;;;;;;;;5080835;28;20088;-79
2021/12/06 01:39:34;;;;;;;37.85;22.10;;;;;;;;;;5098657;28;20127;-79
2021/12/06 01:42:02;;;;;;;47.33;27.38;;;;;;;;;;5080415;28;20505;-79
2021/12/06 01:44:38;;;;;;;38.75;22.63;;;;;;;;;;5080351;28;20554;-79
2021/12/06 01:47:03;;;;;;;31.80;18.20;;;;;;;;;;5080300;28;20051;-79
2021/12/06 01:49:30;;;;;;;29.38;17.35;;;;;;;;;;5080201;28;20719;-79
2021/12/06 01:51:57;;;;;;;25.45;15.13;;;;;;;;;;5079761;28;20027;-78
2021/12/06 01:54:23;;;;;;;25.10;14.43;;;;;;;;;;5098545;28;20055;-78
2021/12/06 01:56:50;;;;;;;24.65;13.73;;;;;;;;;;5079938;28;20086;-78
2021/12/06 01:59:15;;;;;;;27.58;16.42;;;;;;;;;;5079629;28;20031;-78
2021/12/06 02:01:41;;;;;;;24.63;15.05;;;;;;;;;;5079730;28;20917;-77
2021/12/06 02:04:06;;;;;;;21.38;12.63;;;;;;;;;;5079932;28;20065;-77
2021/12/06 02:06:32;;;;;;;22.58;13.02;;;;;;;;;;5079650;28;20054;-77
2021/12/06 02:08:57;;;;;;;24.23;13.80;;;;;;;;;;5099095;28;20020;-77
2021/12/06 02:11:25;;;;;;;24.75;14.15;;;;;;;;;;5079695;28;20078;-77
2021/12/06 02:14:00;;;;;;;23.58;13.07;;;;;;;;;;5080480;28;20024;-77
2021/12/06 02:16:35;;;;;;;24.45;13.23;;;;;;;;;;5099116;28;20035;-77
2021/12/06 02:19:04;;;;;;;25.17;14.07;;;;;;;;;;5081004;28;20473;-78
2021/12/06 02:21:32;;;;;;;24.15;13.18;;;;;;;;;;5080457;28;20019;-77
2021/12/06 02:24:00;;;;;;;21.05;12.57;;;;;;;;;;5079887;28;20032;-78
2021/12/06 02:26:26;;;;;;;21.58;11.77;;;;;;;;;;5078051;28;20019;-77
2021/12/06 02:28:52;;;;;;;24.88;14.40;;;;;;;;;;5079066;28;20063;-78
2021/12/06 02:31:18;;;;;;;21.73;12.18;;;;;;;;;;5079198;28;20023;-77
2021/12/06 02:33:46;;;;;;;17.27;10.13;;;;;;;;;;5097697;28;20049;-77
2021/12/06 02:36:11;;;;;;;18.10;11.10;;;;;;;;;;5081007;28;20881;-77
2021/12/06 02:38:37;;;;;;;22.48;12.25;;;;;;;;;;5079086;28;20026;-77
2021/12/06 02:41:03;;;;;;;18.50;11.88;;;;;;;;;;5079819;28;20114;-76
2021/12/06 02:43:28;;;;;;;19.25;11.02;;;;;;;;;;5080061;28;20054;-78
2021/12/06 02:45:53;;;;;;;19.35;11.55;;;;;;;;;;5098594;28;20063;-77
2021/12/06 02:48:19;;;;;;;17.65;10.38;;;;;;;;;;5079018;28;20473;-77
2021/12/06 02:50:55;;;;;;;16.98;10.90;;;;;;;;;;5098148;28;20041;-77
2021/12/06 02:53:21;;;;;;;19.95;12.25;;;;;;;;;;5097504;28;20019;-77
2021/12/06 02:55:52;;;;;;;19.02;10.45;;;;;;;;;;5098377;28;20084;-77
2021/12/06 02:58:46;;;;;;;19.27;12.20;;;;;;;;;;5116696;27;20533;-78
2021/12/06 03:01:30;;;;;;;17.40;10.50;;;;;;;;;;5117359;27;20441;-77
2021/12/06 03:03:56;;;;;;;17.38;10.30;;;;;;;;;;5098744;27;20023;-77
2021/12/06 03:06:22;;;;;;;18.10;11.02;;;;;;;;;;5099320;27;20537;-77
2021/12/06 03:08:55;;;;;;;16.15;10.43;;;;;;;;;;5098878;27;20019;-77
2021/12/06 03:11:30;;;;;;;20.13;10.82;;;;;;;;;;5098681;27;20517;-77
2021/12/06 03:13:56;;;;;;;22.52;12.57;;;;;;;;;;5098796;27;20076;-77
2021/12/06 03:16:22;;;;;;;22.73;12.43;;;;;;;;;;5098475;27;20411;-78
2021/12/06 03:18:49;;;;;;;21.35;11.60;;;;;;;;;;5099471;27;20019;-78
2021/12/06 03:21:15;;;;;;;24.33;12.00;;;;;;;;;;5117876;27;20462;-78
2021/12/06 03:23:40;;;;;;;22.20;12.75;;;;;;;;;;5116750;27;20027;-78
2021/12/06 03:26:06;;;;;;;23.33;12.45;;;;;;;;;;5118302;27;20515;-78
2021/12/06 03:28:35;;;;;;;21.67;12.35;;;;;;;;;;5080369;27;20019;-78
2021/12/06 03:31:02;;;;;;;24.67;12.23;;;;;;;;;;5074867;28;20413;-78
2021/12/06 03:33:28;;;;;;;19.48;12.25;;;;;;;;;;5076467;28;20063;-79
2021/12/06 03:35:53;;;;;;;21.92;12.55;;;;;;;;;;5076455;28;20848;-79
2021/12/06 03:38:18;;;;;;;23.58;11.70;;;;;;;;;;5076790;28;20088;-79
2021/12/06 03:40:44;;;;;;;19.17;10.95;;;;;;;;;;5076608;28;20371;-78
2021/12/06 03:43:09;;;;;;;21.00;11.25;;;;;;;;;;5076455;28;20046;-79
2021/12/06 03:45:36;;;;;;;17.27;11.38;;;;;;;;;;5076383;28;20028;-78
2021/12/06 03:48:01;;;;;;;16.85;9.70;;;;;;;;;;5074623;28;20035;-77
2021/12/06 03:50:27;;;;;;;17.42;10.32;;;;;;;;;;5075976;28;20466;-77
2021/12/06 03:52:52;;;;;;;16.42;10.23;;;;;;;;;;5074236;28;20016;-78
2021/12/06 03:55:18;;;;;;;19.60;10.63;;;;;;;;;;5076188;28;20104;-78
2021/12/06 03:57:43;;;;;;;18.90;10.07;;;;;;;;;;5105277;27;20047;-78
2021/12/06 04:00:09;;;;;;;16.13;8.95;;;;;;;;;;5116707;27;20381;-78
2021/12/06 04:02:34;;;;;;;16.45;9.32;;;;;;;;;;5116303;27;20457;-78
2021/12/06 04:04:59;;;;;;;16.52;8.45;;;;;;;;;;5097693;27;20035;-78
2021/12/06 04:07:25;;;;;;;15.25;9.38;;;;;;;;;;5098761;27;20027;-78
2021/12/06 04:09:50;;;;;;;16.30;9.18;;;;;;;;;;5098280;27;20027;-78
2021/12/06 04:12:16;;;;;;;16.92;8.52;;;;;;;;;;5097634;27;20023;-78
2021/12/06 04:14:41;;;;;;;14.20;8.68;;;;;;;;;;5097872;27;20148;-78
2021/12/06 04:17:07;;;;;;;14.20;8.23;;;;;;;;;;5097345;27;20461;-79
2021/12/06 04:19:32;;;;;;;15.75;9.40;;;;;;;;;;5097671;27;20026;-78
2021/12/06 04:21:58;;;;;;;13.60;8.00;;;;;;;;;;5098096;27;20042;-78
2021/12/06 04:24:23;;;;;;;13.80;8.40;;;;;;;;;;5117049;27;20037;-78
2021/12/06 04:26:49;;;;;;;13.35;7.85;;;;;;;;;;5116202;27;20054;-78
2021/12/06 04:29:14;;;;;;;14.27;9.35;;;;;;;;;;5117049;27;20058;-78
2021/12/06 04:31:51;;;;;;;14.73;8.07;;;;;;;;;;5097415;27;20023;-78
2021/12/06 04:34:16;;;;;;;12.63;7.95;;;;;;;;;;5097224;27;20114;-78
2021/12/06 04:36:43;;;;;;;12.90;8.23;;;;;;;;;;5097441;27;20118;-77
2021/12/06 04:39:09;;;;;;;15.35;8.95;;;;;;;;;;5097940;28;20023;-78
2021/12/06 04:41:35;;;;;;;23.52;12.18;;;;;;;;;;5116091;27;20106;-78
2021/12/06 04:44:01;;;;;;;21.15;10.85;;;;;;;;;;5097647;28;20465;-78
2021/12/06 04:46:26;;;;;;;20.30;11.73;;;;;;;;;;5097511;28;20027;-78
2021/12/06 04:48:52;;;;;;;29.20;15.40;;;;;;;;;;5114989;27;20030;-78
2021/12/06 04:51:17;;;;;;;25.25;14.63;;;;;;;;;;5115513;28;20080;-79
2021/12/06 04:53:43;;;;;;;19.88;12.07;;;;;;;;;;5097059;28;20076;-79
2021/12/06 04:56:17;;;;;;;22.80;11.82;;;;;;;;;;5096364;28;20542;-78
2021/12/06 04:58:46;;;;;;;20.05;11.80;;;;;;;;;;5087923;28;20038;-80
2021/12/06 05:01:14;;;;;;;20.13;11.50;;;;;;;;;;5075452;28;20024;-79
2021/12/06 05:03:40;;;;;;;20.70;13.18;;;;;;;;;;5093899;28;20435;-79
2021/12/06 05:06:08;;;;;;;24.05;14.43;;;;;;;;;;5077265;28;20118;-78
2021/12/06 05:08:36;;;;;;;32.50;17.55;;;;;;;;;;5095760;28;20045;-79
2021/12/06 05:11:02;;;;;;;36.15;19.67;;;;;;;;;;5076728;28;20095;-79
2021/12/06 05:13:28;;;;;;;31.05;17.27;;;;;;;;;;5096421;28;20101;-78
2021/12/06 05:15:53;;;;;;;26.48;14.95;;;;;;;;;;5076146;28;20020;-78
2021/12/06 05:18:19;;;;;;;22.65;13.00;;;;;;;;;;5076463;28;20028;-80
2021/12/06 05:20:44;;;;;;;21.05;12.02;;;;;;;;;;5095835;28;20352;-79
2021/12/06 05:23:10;;;;;;;27.75;14.80;;;;;;;;;;5094633;28;20102;-79
2021/12/06 05:25:35;;;;;;;31.85;16.00;;;;;;;;;;5096329;28;20035;-79
2021/12/06 05:28:01;;;;;;;24.05;11.93;;;;;;;;;;5114196;28;20035;-79
2021/12/06 05:30:28;;;;;;;24.88;12.20;;;;;;;;;;5102582;28;20015;-78
2021/12/06 05:32:54;;;;;;;22.95;14.18;;;;;;;;;;5110959;28;20023;-78
2021/12/06 05:35:19;;;;;;;23.80;13.98;;;;;;;;;;5091772;28;20142;-81
2021/12/06 05:37:47;;;;;;;27.05;13.70;;;;;;;;;;5091882;28;20175;-78
2021/12/06 05:40:14;;;;;;;20.98;13.82;;;;;;;;;;5090463;28;20065;-81
2021/12/06 05:42:40;;;;;;;17.00;11.10;;;;;;;;;;5111175;28;20050;-81
2021/12/06 05:45:06;;;;;;;26.58;16.75;;;;;;;;;;5110395;28;20062;-83
2021/12/06 05:47:31;;;;;;;18.73;11.88;;;;;;;;;;5091062;28;20036;-81
2021/12/06 05:49:56;;;;;;;20.95;11.43;;;;;;;;;;5091930;28;20034;-78
2021/12/06 05:52:22;;;;;;;20.20;13.18;;;;;;;;;;5092158;28;20053;-81
2021/12/06 05:54:47;;;;;;;15.57;10.15;;;;;;;;;;5091876;28;20678;-81
2021/12/06 05:57:14;;;;;;;17.30;12.75;;;;;;;;;;5088480;28;20707;-82
2021/12/06 05:59:40;;;;;;;20.13;13.75;;;;;;;;;;5088601;28;20114;-79
2021/12/06 06:02:07;;;;;;;17.48;11.20;;;;;;;;;;5094440;28;20141;-81
2021/12/06 06:04:32;;;;;;;69.50;41.08;;;;;;;;;;5092278;28;20069;-80
2021/12/06 06:06:58;;;;;;;33.08;18.40;;;;;;;;;;5092740;28;20039;-78
2021/12/06 06:09:23;;;;;;;29.17;17.33;;;;;;;;;;5093104;28;20019;-81
2021/12/06 06:11:48;;;;;;;24.67;13.82;;;;;;;;;;5092853;28;20028;-79
2021/12/06 06:14:15;;;;;;;37.53;20.25;;;;;;;;;;5092921;28;20454;-80
2021/12/06 06:16:47;;;;;;;52.63;32.30;;;;;;;;;;5093818;28;20170;-80
2021/12/06 06:19:17;;;;;;;29.92;16.67;;;;;;;;;;5092480;28;20123;-79
2021/12/06 06:21:43;;;;;;;31.25;20.10;;;;;;;;;;5093910;28;20028;-78
2021/12/06 06:24:08;;;;;;;40.00;25.95;;;;;;;;;;5094325;28;20039;-81
2021/12/06 06:26:34;;;;;;;25.88;17.58;;;;;;;;;;5091483;28;20031;-79
2021/12/06 06:28:59;;;;;;;27.77;18.35;;;;;;;;;;5094822;28;20070;-79
2021/12/06 06:31:25;;;;;;;28.08;21.10;;;;;;;;;;5093831;28;20039;-77
2021/12/06 06:33:51;;;;;;;43.10;26.73;;;;;;;;;;5094010;28;20027;-79
2021/12/06 06:36:16;;;;;;;58.38;37.85;;;;;;;;;;5092300;28;20585;-77
2021/12/06 06:38:41;;;;;;;21.33;12.95;;;;;;;;;;5092013;28;20024;-77
2021/12/06 06:41:07;;;;;;;29.42;16.73;;;;;;;;;;5094163;28;20019;-78
2021/12/06 06:43:32;;;;;;;27.55;19.33;;;;;;;;;;5092292;28;20043;-78
2021/12/06 06:45:58;;;;;;;28.08;18.67;;;;;;;;;;5090178;28;20034;-79
2021/12/06 06:48:23;;;;;;;25.80;17.38;;;;;;;;;;5093193;28;20111;-79
2021/12/06 06:50:48;;;;;;;25.23;16.60;;;;;;;;;;5091502;28;20378;-79
2021/12/06 06:53:14;;;;;;;21.85;15.65;;;;;;;;;;5092116;28;20026;-79
2021/12/06 06:55:39;;;;;;;34.08;23.02;;;;;;;;;;5091935;28;20030;-80
2021/12/06 06:58:05;;;;;;;46.33;27.70;;;;;;;;;;5085787;27;20444;-78
2021/12/06 07:00:33;;;;;;;57.60;32.25;;;;;;;;;;5084140;27;20482;-80
2021/12/06 07:02:58;;;;;;;123.18;61.10;;;;;;;;;;5084577;27;20079;-79
2021/12/06 07:05:24;;;;;;;270.83;123.47;;;;;;;;;;5084182;27;20032;-78
2021/12/06 07:07:49;;;;;;;212.63;101.70;;;;;;;;;;5083561;27;20032;-79
2021/12/06 07:10:15;;;;;;;157.05;73.63;;;;;;;;;;5102664;27;20714;-79
2021/12/06 07:12:47;;;;;;;50.58;28.20;;;;;;;;;;5083635;27;20051;-78
2021/12/06 07:15:14;;;;;;;130.10;60.78;;;;;;;;;;5102494;27;20023;-80
2021/12/06 07:17:40;;;;;;;57.78;32.05;;;;;;;;;;5084050;27;20656;-79
2021/12/06 07:20:06;;;;;;;55.20;33.53;;;;;;;;;;5110807;27;20422;-79
2021/12/06 07:22:31;;;;;;;111.55;51.75;;;;;;;;;;5081704;27;20032;-78
2021/12/06 07:24:56;;;;;;;77.20;38.00;;;;;;;;;;5082636;28;20041;-78
2021/12/06 07:27:23;;;;;;;53.55;28.05;;;;;;;;;;5094628;28;20100;-78
2021/12/06 07:29:48;;;;;;;31.60;17.67;;;;;;;;;;5095293;28;20027;-78
2021/12/06 07:32:14;;;;;;;23.23;14.93;;;;;;;;;;5096164;28;20020;-78
2021/12/06 07:34:40;;;;;;;27.23;16.63;;;;;;;;;;5077484;28;20418;-79
2021/12/06 07:37:05;;;;;;;26.10;16.60;;;;;;;;;;5077803;28;20453;-80
2021/12/06 07:39:31;;;;;;;27.90;18.63;;;;;;;;;;5077846;28;20026;-78
2021/12/06 07:41:57;;;;;;;81.90;45.70;;;;;;;;;;5077578;28;20428;-79
2021/12/06 07:44:22;;;;;;;25.23;15.25;;;;;;;;;;5096220;28;20027;-79
2021/12/06 07:46:50;;;;;;;34.88;24.73;;;;;;;;;;5077716;28;20032;-79
2021/12/06 07:49:15;;;;;;;54.30;36.60;;;;;;;;;;5096481;28;20072;-85
2021/12/06 07:51:41;;;;;;;51.22;32.30;;;;;;;;;;5094959;28;20425;-81
2021/12/06 07:54:06;;;;;;;27.42;17.25;;;;;;;;;;5079093;28;20028;-80
2021/12/06 07:56:32;;;;;;;25.40;14.25;;;;;;;;;;5078523;28;20324;-79
2021/12/06 07:58:57;;;;;;;82.60;44.45;;;;;;;;;;5097467;28;20573;-79
2021/12/06 08:01:23;;;;;;;35.15;21.38;;;;;;;;;;5097487;28;20076;-79
2021/12/06 08:03:48;;;;;;;16.20;9.82;;;;;;;;;;5097531;28;20117;-78
2021/12/06 08:06:14;;;;;;;62.47;29.13;;;;;;;;;;5097542;28;20024;-79
2021/12/06 08:08:40;;;;;;;36.38;13.95;;;;;;;;;;5098429;28;20027;-78
2021/12/06 08:11:10;;;;;;;118.10;42.47;;;;;;;;;;5095051;28;20015;-78
2021/12/06 08:13:36;;;;;;;79.82;30.17;;;;;;;;;;5096068;28;20019;-78
2021/12/06 08:16:04;;;;;;;39.78;19.45;;;;;;;;;;5096384;28;20043;-78
2021/12/06 08:18:29;;;;;;;27.65;16.13;;;;;;;;;;5096244;28;20027;-77
2021/12/06 08:20:56;;;;;;;29.65;17.35;;;;;;;;;;5096296;28;20020;-77
2021/12/06 08:23:22;;;;;;;32.90;19.58;;;;;;;;;;5096851;28;20108;-77
2021/12/06 08:25:48;;;;;;;63.55;32.38;;;;;;;;;;5098037;28;20044;-79
2021/12/06 08:28:15;;;;;;;74.30;42.67;;;;;;;;;;5097654;28;20111;-79
2021/12/06 08:30:41;;;;;;;106.07;55.88;;;;;;;;;;5099264;28;20030;-80
2021/12/06 08:33:07;;;;;;;77.05;42.55;;;;;;;;;;5097704;28;20012;-77
2021/12/06 08:35:34;;;;;;;37.88;22.02;;;;;;;;;;5098555;28;20031;-78
2021/12/06 08:38:00;;;;;;;58.28;31.25;;;;;;;;;;5098659;28;20085;-79
2021/12/06 08:40:27;;;;;;;39.00;25.77;;;;;;;;;;5098353;28;20499;-79
2021/12/06 08:42:53;;;;;;;30.45;21.75;;;;;;;;;;5100949;28;20023;-77
2021/12/06 08:45:19;;;;;;;48.13;33.45;;;;;;;;;;5102788;28;20084;-80
2021/12/06 08:47:44;;;;;;;76.82;47.00;;;;;;;;;;5100838;28;20451;-79
2021/12/06 08:50:15;;;;;;;59.00;33.88;;;;;;;;;;5103510;28;20038;-79
2021/12/06 08:52:40;;;;;;;29.23;17.55;;;;;;;;;;5099323;28;20028;-78
2021/12/06 08:55:06;;;;;;;42.70;25.73;;;;;;;;;;5101644;28;20474;-78
2021/12/06 08:57:32;;;;;;;47.90;29.33;;;;;;;;;;5093842;27;20394;-83
2021/12/06 08:59:57;;;;;;;22.13;15.00;;;;;;;;;;5073653;28;20016;-74
2021/12/06 09:02:23;;;;;;;70.85;42.55;;;;;;;;;;5074877;28;20016;-81
2021/12/06 09:04:48;;;;;;;67.95;34.17;;;;;;;;;;5075265;28;20035;-81
2021/12/06 09:07:14;;;;;;;71.95;38.22;;;;;;;;;;5074624;28;20024;-81
2021/12/06 09:09:45;;;;;;;64.10;28.67;;;;;;;;;;5075049;28;20028;-80
2021/12/06 09:12:12;;;;;;;74.22;35.35;;;;;;;;;;5075504;28;20077;-82
2021/12/06 09:14:38;;;;;;;90.32;39.38;;;;;;;;;;5073148;28;20032;-81
2021/12/06 09:17:04;;;;;;;60.47;28.15;;;;;;;;;;5076610;28;20043;-82
2021/12/06 09:19:29;;;;;;;79.57;37.20;;;;;;;;;;5076315;28;20971;-80
2021/12/06 09:21:54;;;;;;;109.97;49.13;;;;;;;;;;5075846;28;20153;-81
2021/12/06 09:24:20;;;;;;;346.48;157.15;;;;;;;;;;5087660;28;20027;-82
2021/12/06 09:26:46;;;;;;;143.50;61.70;;;;;;;;;;5096798;28;20834;-82
2021/12/06 09:29:12;;;;;;;39.40;22.70;;;;;;;;;;5079098;28;20055;-81
2021/12/06 09:31:37;;;;;;;120.32;73.85;;;;;;;;;;5076721;28;20120;-83
2021/12/06 09:34:03;;;;;;;18.90;13.18;;;;;;;;;;5076381;28;20073;-81
2021/12/06 09:36:29;;;;;;;16.85;13.93;;;;;;;;;;5079794;28;20028;-81
2021/12/06 09:38:54;;;;;;;18.33;13.02;;;;;;;;;;5080895;28;20024;-81
2021/12/06 09:41:25;;;;;;;18.42;11.85;;;;;;;;;;5098798;28;20016;-81
2021/12/06 09:43:52;;;;;;;40.55;24.40;;;;;;;;;;5080624;28;20035;-80
2021/12/06 09:46:18;;;;;;;78.15;43.08;;;;;;;;;;5080004;28;20172;-81
2021/12/06 09:48:45;;;;;;;20.90;13.80;;;;;;;;;;5080420;28;20478;-80
2021/12/06 09:51:13;;;;;;;46.30;27.27;;;;;;;;;;5096479;27;20020;-81
2021/12/06 09:53:39;;;;;;;62.58;37.60;;;;;;;;;;5083298;27;20028;-80
2021/12/06 09:56:06;;;;;;;56.30;38.75;;;;;;;;;;5095642;27;20016;-79
2021/12/06 09:58:33;;;;;;;67.72;40.22;;;;;;;;;;5095338;27;20031;-79
2021/12/06 10:01:03;;;;;;;49.97;30.27;;;;;;;;;;5080516;27;20068;-79
2021/12/06 10:03:30;;;;;;;45.10;26.27;;;;;;;;;;5093764;27;20054;-80
2021/12/06 10:06:01;;;;;;;61.03;31.40;;;;;;;;;;5082708;27;20026;-80
2021/12/06 10:08:27;;;;;;;129.55;56.08;;;;;;;;;;5081670;27;20019;-79
2021/12/06 10:10:52;;;;;;;69.07;33.85;;;;;;;;;;5097234;27;20027;-79
2021/12/06 10:13:18;;;;;;;40.22;21.77;;;;;;;;;;5097147;27;20016;-79
2021/12/06 10:15:43;;;;;;;74.47;35.38;;;;;;;;;;5079120;28;20027;-79
2021/12/06 10:18:10;;;;;;;47.58;25.15;;;;;;;;;;5081008;27;20047;-78
2021/12/06 10:20:35;;;;;;;40.33;21.33;;;;;;;;;;5082812;27;20043;-78
2021/12/06 10:23:00;;;;;;;53.83;29.70;;;;;;;;;;5096998;27;20073;-78
2021/12/06 10:25:40;;;;;;;75.80;35.60;;;;;;;;;;5079729;28;20028;-78
2021/12/06 10:28:06;;;;;;;35.42;19.70;;;;;;;;;;5079629;28;20023;-77
2021/12/06 10:30:33;;;;;;;152.45;64.40;;;;;;;;;;5083682;28;20027;-78
2021/12/06 10:33:08;;;;;;;47.38;24.35;;;;;;;;;;5076602;28;20119;-77
2021/12/06 10:35:33;;;;;;;30.83;18.67;;;;;;;;;;5077395;28;20024;-79
2021/12/06 10:37:59;;;;;;;37.40;21.83;;;;;;;;;;5077047;28;20026;-82
2021/12/06 10:40:26;;;;;;;11.50;7.68;;;;;;;;;;5074288;28;20020;-80
2021/12/06 10:42:52;;;;;;;16.35;9.07;;;;;;;;;;5074342;28;20034;-80
2021/12/06 10:45:17;;;;;;;21.27;11.98;;;;;;;;;;5073753;28;20024;-82
2021/12/06 10:47:44;;;;;;;23.45;16.20;;;;;;;;;;5092168;28;20035;-81
2021/12/06 10:50:09;;;;;;;39.70;26.10;;;;;;;;;;5073317;28;20027;-78
2021/12/06 10:52:35;;;;;;;66.60;44.22;;;;;;;;;;5073695;28;20039;-78
2021/12/06 10:55:00;;;;;;;54.40;31.35;;;;;;;;;;5092659;28;20037;-77
2021/12/06 10:57:49;;;;;;;45.85;26.25;;;;;;;;;;5087549;28;20823;-78
2021/12/06 11:00:28;;;;;;;67.80;38.42;;;;;;;;;;5084967;28;20023;-78
2021/12/06 11:02:54;;;;;;;41.83;25.95;;;;;;;;;;5095549;28;20027;-78
2021/12/06 11:05:23;;;;;;;41.83;27.60;;;;;;;;;;5096154;28;20039;-78
2021/12/06 11:07:55;;;;;;;20.80;13.35;;;;;;;;;;5096505;28;20027;-78
2021/12/06 11:10:24;;;;;;;35.38;21.35;;;;;;;;;;5095327;28;20434;-79
2021/12/06 11:13:09;;;;;;;63.87;37.60;;;;;;;;;;5093548;28;20084;-79
2021/12/06 11:15:35;;;;;;;46.38;28.50;;;;;;;;;;5092207;28;20141;-79
2021/12/06 11:18:01;;;;;;;28.35;18.05;;;;;;;;;;5094990;28;20783;-79
2021/12/06 11:20:26;;;;;;;40.35;21.45;;;;;;;;;;5094093;28;20770;-79
2021/12/06 11:22:52;;;;;;;29.13;17.85;;;;;;;;;;5097455;28;20016;-79
2021/12/06 11:25:17;;;;;;;14.63;9.80;;;;;;;;;;5094719;28;20027;-78
2021/12/06 11:27:44;;;;;;;13.55;10.10;;;;;;;;;;5094408;28;20102;-79
2021/12/06 11:30:13;;;;;;;42.80;27.35;;;;;;;;;;5096650;28;20080;-79
2021/12/06 11:32:40;;;;;;;23.35;16.42;;;;;;;;;;5096689;28;20085;-79
2021/12/06 11:35:08;;;;;;;30.67;21.13;;;;;;;;;;5096741;28;20102;-78
2021/12/06 11:37:41;;;;;;;32.35;22.65;;;;;;;;;;5093730;28;20027;-78
2021/12/06 11:40:10;;;;;;;23.75;17.00;;;;;;;;;;5096260;28;20023;-80
2021/12/06 11:42:47;;;;;;;27.92;18.45;;;;;;;;;;5096666;28;20096;-78
2021/12/06 11:45:13;;;;;;;44.22;29.48;;;;;;;;;;5095303;28;20134;-79
2021/12/06 11:47:38;;;;;;;25.02;18.08;;;;;;;;;;5094598;28;20135;-80
2021/12/06 11:50:04;;;;;;;17.05;15.02;;;;;;;;;;5096766;28;20051;-79
2021/12/06 11:52:32;;;;;;;25.00;19.02;;;;;;;;;;5094913;28;20030;-80
2021/12/06 11:55:00;;;;;;;30.52;22.35;;;;;;;;;;5095910;28;20055;-80
2021/12/06 11:57:27;;;;;;;30.98;21.35;;;;;;;;;;5107788;27;20107;-80
2021/12/06 11:59:58;;;;;;;24.85;14.73;;;;;;;;;;5098073;27;20022;-80
2021/12/06 12:02:31;;;;;;;15.02;10.27;;;;;;;;;;5116296;27;20103;-79
2021/12/06 12:05:08;;;;;;;14.80;10.48;;;;;;;;;;5098283;27;20469;-79
2021/12/06 12:07:53;;;;;;;27.35;18.88;;;;;;;;;;5097927;27;20066;-79
2021/12/06 12:10:32;;;;;;;17.77;10.80;;;;;;;;;;5097774;27;20019;-80
2021/12/06 12:12:58;;;;;;;19.77;14.52;;;;;;;;;;5116640;27;20560;-79
2021/12/06 12:15:24;;;;;;;18.00;12.27;;;;;;;;;;5097438;27;20035;-80
2021/12/06 12:17:51;;;;;;;15.35;11.20;;;;;;;;;;5116554;27;20027;-80
2021/12/06 12:20:17;;;;;;;16.60;12.85;;;;;;;;;;5097744;27;20023;-80
2021/12/06 12:22:49;;;;;;;15.25;12.13;;;;;;;;;;5116777;27;20015;-80
2021/12/06 12:25:22;;;;;;;23.63;18.13;;;;;;;;;;5097956;28;20503;-79
2021/12/06 12:28:02;;;;;;;35.40;22.67;;;;;;;;;;5097780;27;20275;-80
2021/12/06 12:30:33;;;;;;;;;;;;;;;;;;5097646;27;20133;-78
2021/12/06 12:32:59;;;;;;;54.05;32.70;;;;;;;;;;5117320;27;19907;-80
2021/12/06 12:35:25;;;;;;;49.80;32.88;;;;;;;;;;5097945;27;20019;-79
2021/12/06 12:37:52;;;;;;;46.13;28.15;;;;;;;;;;5116824;27;20518;-79
2021/12/06 12:40:19;;;;;;;81.82;43.33;;;;;;;;;;5097449;28;20498;-79
2021/12/06 12:43:00;;;;;;;68.30;36.25;;;;;;;;;;5116579;27;20023;-79
2021/12/06 12:45:37;;;;;;;86.40;41.10;;;;;;;;;;5097513;27;20031;-79
2021/12/06 12:48:03;;;;;;;336.33;145.15;;;;;;;;;;5116779;27;20087;-79
2021/12/06 12:50:30;;;;;;;179.18;81.28;;;;;;;;;;5097635;28;20031;-79
2021/12/06 12:52:59;;;;;;;78.90;35.78;;;;;;;;;;5115764;28;20087;-79
2021/12/06 12:55:26;;;;;;;256.53;118.80;;;;;;;;;;5097686;28;20023;-79
2021/12/06 12:58:05;;;;;;;215.00;95.18;;;;;;;;;;5114878;28;20062;-80
2021/12/06 13:00:31;;;;;;;101.88;48.80;;;;;;;;;;5097180;28;20053;-79
2021/12/06 13:02:57;;;;;;;128.05;69.78;;;;;;;;;;5097576;28;20023;-80
2021/12/06 13:05:26;;;;;;;63.75;36.38;;;;;;;;;;5098115;28;20034;-80
2021/12/06 13:07:51;;;;;;;93.77;51.50;;;;;;;;;;5116576;28;20023;-80
2021/12/06 13:10:23;;;;;;;106.28;54.38;;;;;;;;;;5099029;27;20021;-79
2021/12/06 13:12:57;;;;;;;54.40;28.77;;;;;;;;;;5120080;27;20042;-80
2021/12/06 13:15:32;;;;;;;154.70;76.47;;;;;;;;;;5101586;27;20034;-80
2021/12/06 13:17:58;;;;;;;94.22;47.92;;;;;;;;;;5101069;27;20430;-80
2021/12/06 13:20:26;;;;;;;61.67;33.42;;;;;;;;;;5119457;27;20054;-80
2021/12/06 13:22:53;;;;;;;32.53;20.20;;;;;;;;;;5101203;27;20039;-79
2021/12/06 13:25:23;;;;;;;18.60;12.75;;;;;;;;;;5100533;27;20047;-80
2021/12/06 13:27:55;;;;;;;61.15;33.47;;;;;;;;;;5119416;27;20454;-80
2021/12/06 13:30:23;;;;;;;70.60;40.08;;;;;;;;;;5120214;27;20139;-80
2021/12/06 13:32:54;;;;;;;100.95;53.30;;;;;;;;;;5100569;27;20027;-79
2021/12/06 13:35:34;;;;;;;106.30;55.83;;;;;;;;;;5100899;27;20033;-81
2021/12/06 13:38:18;;;;;;;101.22;55.95;;;;;;;;;;5119267;27;20023;-79
2021/12/06 13:40:55;;;;;;;102.50;59.30;;;;;;;;;;5100285;27;20027;-80
2021/12/06 13:43:24;;;;;;;53.17;32.75;;;;;;;;;;5119067;27;20029;-79
2021/12/06 13:45:52;;;;;;;56.63;33.65;;;;;;;;;;5100202;27;20119;-80
2021/12/06 13:48:22;;;;;;;58.97;39.35;;;;;;;;;;5100355;27;20034;-78
2021/12/06 13:50:49;;;;;;;40.63;27.60;;;;;;;;;;5119841;27;20025;-80
2021/12/06 13:53:21;;;;;;;39.20;27.55;;;;;;;;;;5118686;27;20023;-79
2021/12/06 13:55:49;;;;;;;57.47;38.88;;;;;;;;;;5119299;27;20031;-79
2021/12/06 13:58:14;;;;;;;88.05;54.30;;;;;;;;;;5100241;27;20050;-78
2021/12/06 14:00:47;;;;;;;64.40;40.05;;;;;;;;;;5100549;27;20023;-80
2021/12/06 14:03:27;;;;;;;411.08;172.27;;;;;;;;;;5100886;27;20023;-80
2021/12/06 14:05:53;;;;;;;327.13;146.13;;;;;;;;;;5100745;27;20389;-79
2021/12/06 14:08:21;;;;;;;183.88;89.43;;;;;;;;;;5100455;27;20046;-79
2021/12/06 14:10:47;;;;;;;148.18;76.53;;;;;;;;;;5118543;27;20019;-80
2021/12/06 14:13:12;;;;;;;115.05;64.68;;;;;;;;;;5099923;27;20160;-80
2021/12/06 14:15:48;;;;;;;81.18;50.40;;;;;;;;;;5118673;27;20106;-79
2021/12/06 14:18:17;;;;;;;51.20;33.95;;;;;;;;;;5118950;27;20019;-78
2021/12/06 14:20:50;;;;;;;33.33;22.77;;;;;;;;;;5099516;27;20095;-79
2021/12/06 14:23:18;;;;;;;25.05;18.95;;;;;;;;;;5100107;27;20103;-78